Time;durP1;ratioP1;P1;durP2;ratioP2;P2;SDS_P1;SDS_P2;PMS_P1;PMS_P2;Temp;Humidity;BMP_temperature;BMP_pressure;BME280_temperature;BME280_humidity;BME280_pressure;Samples;Min_cycle;Max_cycle;Signal;HPM_P1;HPM_P2
2022/01/11 00:00:38;;;;;;;132.98;54.20;;;-0.30;99.90;;;;;;4899374;29;20043;-69
2022/01/11 00:03:12;;;;;;;132.15;55.53;;;-0.30;99.90;;;;;;4901307;29;20326;-68
2022/01/11 00:05:44;;;;;;;130.07;55.72;;;-0.30;99.90;;;;;;4895281;29;20035;-68
2022/01/11 00:08:12;;;;;;;126.70;54.75;;;-0.40;99.90;;;;;;4897765;29;20168;-68
2022/01/11 00:10:49;;;;;;;125.68;54.35;;;-0.40;99.90;;;;;;4888257;29;20024;-69
2022/01/11 00:13:15;;;;;;;131.35;55.78;;;-0.30;99.90;;;;;;4889986;29;20512;-68
2022/01/11 00:15:40;;;;;;;135.60;54.70;;;-0.30;99.90;;;;;;4896069;29;20032;-68
2022/01/11 00:18:06;;;;;;;133.85;57.85;;;-0.30;99.90;;;;;;4884881;29;20076;-68
2022/01/11 00:20:31;;;;;;;130.18;55.45;;;-0.50;99.90;;;;;;4884512;29;20037;-68
2022/01/11 00:24:28;;;;;;;134.13;56.00;;;-0.50;99.90;;;;;;4895199;29;20071;-69
2022/01/11 00:25:42;;;;;;;142.75;55.80;;;-0.50;99.90;;;;;;4889670;29;20032;-68
2022/01/11 00:28:08;;;;;;;132.38;55.65;;;-0.60;99.90;;;;;;4893477;29;20024;-68
2022/01/11 00:30:40;;;;;;;137.05;57.17;;;-0.70;99.90;;;;;;4883285;29;20029;-68
2022/01/11 00:33:09;;;;;;;141.52;59.22;;;-0.80;99.90;;;;;;4903221;29;20038;-68
2022/01/11 00:35:46;;;;;;;143.52;58.88;;;-0.80;99.90;;;;;;4895899;29;20041;-68
2022/01/11 00:38:15;;;;;;;146.40;59.83;;;-0.80;99.90;;;;;;4895884;29;20102;-69
2022/01/11 00:40:41;;;;;;;151.20;59.53;;;-0.90;99.90;;;;;;4872159;29;20115;-69
2022/01/11 00:43:06;;;;;;;142.38;58.33;;;-0.90;99.90;;;;;;4879117;29;20048;-68
2022/01/11 00:45:31;;;;;;;151.00;58.70;;;-0.90;99.90;;;;;;4886219;29;20037;-68
2022/01/11 00:47:57;;;;;;;154.75;62.95;;;-1.00;99.90;;;;;;4895575;29;20107;-68
2022/01/11 00:50:23;;;;;;;146.68;62.63;;;-1.10;99.90;;;;;;4895314;29;20036;-69
2022/01/11 00:52:49;;;;;;;149.27;60.33;;;-1.10;99.90;;;;;;4880461;29;20086;-68
2022/01/11 00:55:15;;;;;;;150.40;60.90;;;-1.10;99.90;;;;;;4884881;29;20134;-68
2022/01/11 00:57:40;;;;;;;151.80;61.47;;;-1.20;99.90;;;;;;4881773;29;20040;-69
2022/01/11 01:00:08;;;;;;;147.18;63.08;;;-1.30;99.90;;;;;;4877173;29;20028;-68
2022/01/11 01:02:33;;;;;;;157.27;61.85;;;-1.30;99.90;;;;;;4900244;29;20104;-69
2022/01/11 01:04:59;;;;;;;143.00;57.13;;;-1.30;99.90;;;;;;4896554;29;20240;-69
2022/01/11 01:07:24;;;;;;;148.00;63.47;;;-1.30;99.90;;;;;;4883759;29;20032;-69
2022/01/11 01:10:37;;;;;;;156.90;61.97;;;-1.30;99.90;;;;;;4885828;29;20040;-69
2022/01/11 01:12:39;;;;;;;154.65;61.85;;;-1.30;99.90;;;;;;4890530;29;20111;-69
2022/01/11 01:15:05;;;;;;;155.65;61.75;;;-1.30;99.90;;;;;;4889704;29;20027;-69
2022/01/11 01:17:32;;;;;;;155.93;64.07;;;-1.30;99.90;;;;;;4873805;29;20035;-69
2022/01/11 01:19:57;;;;;;;158.63;62.75;;;-1.30;99.90;;;;;;4887901;29;20513;-69
2022/01/11 01:22:23;;;;;;;154.05;62.90;;;-1.30;99.90;;;;;;4886329;29;20900;-69
2022/01/11 01:24:48;;;;;;;164.07;66.18;;;-1.30;99.90;;;;;;4896841;29;20030;-69
2022/01/11 01:27:14;;;;;;;166.80;67.75;;;-1.30;99.90;;;;;;4901393;29;20112;-69
2022/01/11 01:29:40;;;;;;;159.27;65.07;;;-1.50;99.90;;;;;;4881355;29;20039;-68
2022/01/11 01:32:06;;;;;;;167.13;67.00;;;-1.50;99.90;;;;;;4886414;29;20025;-69
2022/01/11 01:34:31;;;;;;;153.80;64.45;;;-1.50;99.90;;;;;;4896724;29;20040;-69
2022/01/11 01:36:57;;;;;;;152.52;64.78;;;-1.50;99.90;;;;;;4874430;29;20052;-69
2022/01/11 01:39:24;;;;;;;152.45;63.13;;;-1.50;99.90;;;;;;4884686;29;20033;-68
2022/01/11 01:41:50;;;;;;;165.40;65.22;;;-1.50;99.90;;;;;;4899052;29;20024;-69
2022/01/11 01:44:15;;;;;;;161.15;64.03;;;-1.50;99.90;;;;;;4884552;29;20056;-68
2022/01/11 01:46:41;;;;;;;166.77;64.43;;;-1.50;99.90;;;;;;4876667;29;20032;-68
2022/01/11 01:49:07;;;;;;;159.70;65.30;;;-1.50;99.90;;;;;;4901770;29;20028;-69
2022/01/11 01:51:32;;;;;;;161.73;64.13;;;-1.50;99.90;;;;;;4874398;29;20072;-68
2022/01/11 01:53:58;;;;;;;166.30;64.80;;;-1.50;99.90;;;;;;4880004;29;20065;-68
2022/01/11 01:56:24;;;;;;;158.95;64.20;;;-1.40;99.90;;;;;;4887742;29;20047;-69
2022/01/11 01:58:49;;;;;;;161.40;64.38;;;-1.50;99.90;;;;;;4879245;29;20044;-69
2022/01/11 02:01:15;;;;;;;155.25;62.28;;;-1.50;99.90;;;;;;4880803;29;20068;-70
2022/01/11 02:03:40;;;;;;;154.23;61.65;;;-1.50;99.90;;;;;;4895290;29;20135;-69
2022/01/11 02:06:06;;;;;;;148.20;58.95;;;-1.60;99.90;;;;;;4873553;29;20047;-69
2022/01/11 02:08:31;;;;;;;161.63;62.85;;;-1.70;99.90;;;;;;4885328;29;20480;-69
2022/01/11 02:10:57;;;;;;;155.75;61.42;;;-1.70;99.90;;;;;;4872685;29;20028;-68
2022/01/11 02:13:22;;;;;;;161.60;62.92;;;-1.70;99.90;;;;;;4885462;29;20067;-68
2022/01/11 02:15:50;;;;;;;166.23;64.40;;;-1.80;99.90;;;;;;4879586;29;20037;-69
2022/01/11 02:18:15;;;;;;;170.32;63.67;;;-1.80;99.90;;;;;;4887662;29;20040;-69
2022/01/11 02:20:44;;;;;;;171.77;64.57;;;-1.80;99.90;;;;;;4859346;29;20032;-68
2022/01/11 02:23:11;;;;;;;177.90;70.50;;;-1.80;99.90;;;;;;4886417;29;20028;-68
2022/01/11 02:25:36;;;;;;;176.38;67.35;;;-1.80;99.90;;;;;;4890157;29;20111;-69
2022/01/11 02:28:03;;;;;;;179.55;66.10;;;-1.80;99.90;;;;;;4881484;29;20039;-68
2022/01/11 02:30:32;;;;;;;179.75;66.72;;;-1.70;99.90;;;;;;4902716;29;20484;-69
2022/01/11 02:32:58;;;;;;;182.45;67.43;;;-1.70;99.90;;;;;;4894548;29;20043;-68
2022/01/11 02:35:25;;;;;;;185.25;67.50;;;-1.80;99.90;;;;;;4878731;29;20408;-68
2022/01/11 02:37:51;;;;;;;180.95;65.53;;;-1.80;99.90;;;;;;4889067;29;20028;-68
2022/01/11 02:40:16;;;;;;;183.05;65.75;;;-1.90;99.90;;;;;;4900065;29;20037;-69
2022/01/11 02:42:42;;;;;;;179.43;67.03;;;-2.00;99.90;;;;;;4880301;29;20532;-68
2022/01/11 02:45:08;;;;;;;183.90;67.25;;;-2.00;99.90;;;;;;4883798;29;20047;-68
2022/01/11 02:47:35;;;;;;;181.35;64.50;;;-2.10;99.90;;;;;;4875668;29;20034;-68
2022/01/11 02:50:01;;;;;;;186.80;65.75;;;-2.10;99.90;;;;;;4882758;29;20016;-68
2022/01/11 02:52:33;;;;;;;183.27;66.25;;;-2.00;99.90;;;;;;4875743;29;20047;-68
2022/01/11 02:55:01;;;;;;;170.43;61.83;;;-1.70;99.90;;;;;;4889272;29;20738;-68
2022/01/11 02:57:26;;;;;;;171.30;65.40;;;-1.90;99.90;;;;;;4880126;29;20028;-68
2022/01/11 03:00:00;;;;;;;177.90;65.85;;;-2.00;99.90;;;;;;4880110;29;20528;-68
2022/01/11 03:02:25;;;;;;;163.98;63.70;;;-1.90;99.90;;;;;;4875287;29;20033;-68
2022/01/11 03:04:53;;;;;;;175.18;65.50;;;-1.90;99.90;;;;;;4886309;29;20088;-68
2022/01/11 03:07:18;;;;;;;166.95;63.35;;;-1.80;99.90;;;;;;4884148;29;20143;-68
2022/01/11 03:10:00;;;;;;;186.15;68.13;;;-1.90;99.90;;;;;;4880338;29;20922;-68
2022/01/11 03:12:29;;;;;;;181.90;66.22;;;-1.90;99.90;;;;;;4878773;29;20071;-69
2022/01/11 03:14:54;;;;;;;177.40;64.28;;;-1.80;99.90;;;;;;4871719;29;20060;-68
2022/01/11 03:17:20;;;;;;;177.65;65.90;;;-1.80;99.90;;;;;;4878819;29;20040;-68
2022/01/11 03:19:46;;;;;;;182.00;64.63;;;-1.70;99.90;;;;;;4888787;29;20518;-68
2022/01/11 03:22:11;;;;;;;177.60;65.03;;;-1.70;99.90;;;;;;4883599;29;20040;-68
2022/01/11 03:24:38;;;;;;;183.70;66.00;;;-1.70;99.90;;;;;;4880058;29;20088;-68
2022/01/11 03:27:06;;;;;;;179.25;63.80;;;-1.80;99.90;;;;;;4880839;29;20040;-68
2022/01/11 03:29:32;;;;;;;173.85;63.75;;;-1.80;99.90;;;;;;4891974;29;20028;-68
2022/01/11 03:31:57;;;;;;;177.70;64.50;;;-1.80;99.90;;;;;;4898026;29;20039;-68
2022/01/11 03:34:24;;;;;;;174.70;61.72;;;-1.70;99.90;;;;;;4882745;29;20088;-68
2022/01/11 03:36:50;;;;;;;175.35;62.22;;;-1.70;99.90;;;;;;4886733;29;20150;-68
2022/01/11 03:39:15;;;;;;;185.68;62.95;;;-1.80;99.90;;;;;;4875310;29;20176;-68
2022/01/11 03:41:41;;;;;;;187.63;65.07;;;-1.80;99.90;;;;;;4880705;29;20028;-69
2022/01/11 03:44:07;;;;;;;184.20;63.28;;;-1.80;99.90;;;;;;4884387;29;20036;-69
2022/01/11 03:46:32;;;;;;;169.02;61.78;;;-1.90;99.90;;;;;;4888464;29;20043;-68
2022/01/11 03:48:58;;;;;;;175.02;60.35;;;-1.90;99.90;;;;;;4872284;29;20025;-68
2022/01/11 03:51:27;;;;;;;172.43;60.25;;;-1.90;99.90;;;;;;4878594;29;20763;-68
2022/01/11 03:54:02;;;;;;;173.23;61.50;;;-1.80;99.90;;;;;;4875838;29;20745;-68
2022/01/11 03:56:29;;;;;;;175.85;60.78;;;-1.90;99.90;;;;;;4895996;29;20519;-68
2022/01/11 03:59:11;;;;;;;174.18;59.38;;;-1.90;99.90;;;;;;4877973;29;20032;-68
2022/01/11 04:01:37;;;;;;;185.85;63.72;;;-1.90;99.90;;;;;;4888271;29;20572;-68
2022/01/11 04:04:02;;;;;;;175.95;60.38;;;-1.90;99.90;;;;;;4886132;29;20040;-68
2022/01/11 04:06:28;;;;;;;164.27;58.30;;;-1.90;99.90;;;;;;4877223;29;20024;-68
2022/01/11 04:08:54;;;;;;;167.80;60.85;;;-2.00;99.90;;;;;;4877561;29;20441;-68
2022/01/11 04:11:20;;;;;;;169.95;57.35;;;-1.90;99.90;;;;;;4885809;29;20039;-68
2022/01/11 04:13:46;;;;;;;162.77;58.38;;;-1.90;99.90;;;;;;4874994;29;20540;-68
2022/01/11 04:16:11;;;;;;;171.00;59.33;;;-2.00;99.90;;;;;;4878927;29;20135;-68
2022/01/11 04:18:37;;;;;;;160.00;55.45;;;-1.90;99.90;;;;;;4900045;29;20032;-68
2022/01/11 04:21:03;;;;;;;162.43;55.08;;;-2.00;99.90;;;;;;4882440;29;20568;-68
2022/01/11 04:23:28;;;;;;;168.77;56.65;;;-2.00;99.90;;;;;;4887053;29;20047;-68
2022/01/11 04:25:54;;;;;;;174.23;57.00;;;-2.00;99.90;;;;;;4896798;29;20044;-72
2022/01/11 04:28:23;;;;;;;175.52;56.03;;;-2.00;99.90;;;;;;4877902;29;20037;-68
2022/01/11 04:30:48;;;;;;;156.73;54.88;;;-2.00;99.90;;;;;;4880242;29;20475;-68
2022/01/11 04:33:14;;;;;;;167.27;54.90;;;-1.90;99.90;;;;;;4887759;29;20112;-68
2022/01/11 04:35:43;;;;;;;171.35;56.78;;;-1.90;99.90;;;;;;4874260;29;20039;-68
2022/01/11 04:38:08;;;;;;;172.40;58.05;;;-1.90;99.90;;;;;;4886530;29;20029;-68
2022/01/11 04:40:34;;;;;;;183.48;56.65;;;-1.90;99.90;;;;;;4875030;29;20043;-68
2022/01/11 04:42:59;;;;;;;157.68;54.67;;;-1.90;99.90;;;;;;4879483;29;20047;-68
2022/01/11 04:45:25;;;;;;;159.77;52.92;;;-2.00;99.90;;;;;;4886976;29;20691;-68
2022/01/11 04:47:56;;;;;;;162.80;54.35;;;-2.00;99.90;;;;;;4884989;29;20160;-68
2022/01/11 04:50:22;;;;;;;155.43;49.00;;;-2.10;99.90;;;;;;4876366;29;20032;-68
2022/01/11 04:52:47;;;;;;;160.68;48.95;;;-2.20;99.90;;;;;;4894502;29;20864;-69
2022/01/11 04:55:15;;;;;;;164.32;51.38;;;-2.20;99.90;;;;;;4874232;29;20036;-69
2022/01/11 04:57:40;;;;;;;156.05;48.13;;;-2.20;99.90;;;;;;4883781;29;20102;-69
2022/01/11 05:00:06;;;;;;;157.05;48.80;;;-2.20;99.90;;;;;;4882304;29;20603;-68
2022/01/11 05:02:33;;;;;;;169.00;52.03;;;-2.30;99.90;;;;;;4885577;29;20032;-68
2022/01/11 05:04:59;;;;;;;154.18;50.47;;;-2.30;99.90;;;;;;4876307;29;20080;-68
2022/01/11 05:07:24;;;;;;;175.98;52.58;;;-2.40;99.90;;;;;;4878267;29;20092;-68
2022/01/11 05:09:51;;;;;;;168.35;49.38;;;-2.40;99.90;;;;;;4887950;29;20544;-68
2022/01/11 05:12:17;;;;;;;157.30;47.03;;;-2.30;99.90;;;;;;4892050;29;20149;-68
2022/01/11 05:14:42;;;;;;;158.02;48.85;;;-2.40;99.90;;;;;;4891190;29;20047;-68
2022/01/11 05:17:08;;;;;;;164.98;49.63;;;-2.30;99.90;;;;;;4877454;29;20047;-68
2022/01/11 05:19:33;;;;;;;159.10;48.22;;;-2.30;99.90;;;;;;4879616;29;20044;-69
2022/01/11 05:21:59;;;;;;;162.07;48.50;;;-2.30;99.90;;;;;;4887529;29;20037;-69
2022/01/11 05:24:24;;;;;;;164.05;47.67;;;-2.30;99.90;;;;;;4880442;29;20044;-68
2022/01/11 05:26:53;;;;;;;167.48;49.92;;;-2.30;99.90;;;;;;4881439;29;20603;-69
2022/01/11 05:29:19;;;;;;;160.95;47.15;;;-2.30;99.90;;;;;;4882448;29;20036;-68
2022/01/11 05:31:44;;;;;;;147.43;46.13;;;-2.30;99.90;;;;;;4887985;29;20035;-69
2022/01/11 05:34:10;;;;;;;154.73;46.45;;;-2.20;99.90;;;;;;4883651;29;20060;-69
2022/01/11 05:36:35;;;;;;;155.55;47.72;;;-2.20;99.90;;;;;;4868813;29;20508;-68
2022/01/11 05:39:01;;;;;;;152.15;46.00;;;-2.10;99.90;;;;;;4884014;29;20024;-68
2022/01/11 05:41:26;;;;;;;154.95;44.85;;;-2.20;99.90;;;;;;4884027;29;20036;-69
2022/01/11 05:43:53;;;;;;;154.73;44.63;;;-2.20;99.90;;;;;;4888387;29;20161;-69
2022/01/11 05:46:19;;;;;;;139.65;43.08;;;-2.30;99.90;;;;;;4877166;29;20059;-68
2022/01/11 05:48:45;;;;;;;145.77;41.95;;;-2.20;99.90;;;;;;4889275;29;20115;-69
2022/01/11 05:51:12;;;;;;;145.07;43.65;;;-2.20;99.90;;;;;;4879225;29;20080;-68
2022/01/11 05:53:37;;;;;;;138.50;42.38;;;-2.20;99.90;;;;;;4903962;29;20032;-71
2022/01/11 05:56:03;;;;;;;152.13;41.35;;;-2.20;99.90;;;;;;4886796;29;20037;-68
2022/01/11 05:58:29;;;;;;;127.20;40.13;;;-2.20;99.90;;;;;;4889586;29;20043;-68
2022/01/11 06:00:54;;;;;;;151.95;45.50;;;-2.20;99.90;;;;;;4889520;29;20040;-68
2022/01/11 06:03:20;;;;;;;134.23;40.67;;;-2.20;99.90;;;;;;4882454;29;20036;-68
2022/01/11 06:05:48;;;;;;;145.38;43.47;;;-2.10;99.90;;;;;;4890781;29;20809;-68
2022/01/11 06:08:17;;;;;;;154.82;41.72;;;-2.10;99.90;;;;;;4889330;29;20572;-70
2022/01/11 06:10:44;;;;;;;140.20;41.58;;;-2.00;99.90;;;;;;4885868;29;20437;-69
2022/01/11 06:13:10;;;;;;;143.05;39.85;;;-2.00;99.90;;;;;;4884710;29;20068;-68
2022/01/11 06:15:36;;;;;;;127.43;38.22;;;-2.00;99.90;;;;;;4879855;29;20027;-69
2022/01/11 06:18:03;;;;;;;145.25;40.45;;;-2.00;99.90;;;;;;4888566;29;20780;-69
2022/01/11 06:20:32;;;;;;;146.57;41.08;;;-2.00;99.90;;;;;;4886989;29;20532;-69
2022/01/11 06:22:57;;;;;;;136.75;38.33;;;-2.00;99.90;;;;;;4874656;29;20024;-69
2022/01/11 06:25:23;;;;;;;147.88;41.13;;;-2.00;99.90;;;;;;4889734;29;20115;-68
2022/01/11 06:27:49;;;;;;;142.63;38.70;;;-2.10;99.90;;;;;;4888033;29;20433;-69
2022/01/11 06:30:16;;;;;;;123.05;37.10;;;-2.10;99.90;;;;;;4887756;29;20054;-69
2022/01/11 06:32:43;;;;;;;134.18;39.63;;;-2.00;99.90;;;;;;4888242;29;20405;-69
2022/01/11 06:35:09;;;;;;;132.50;37.80;;;-2.00;99.90;;;;;;4885753;29;20036;-68
2022/01/11 06:37:35;;;;;;;130.60;36.20;;;-2.00;99.90;;;;;;4885416;29;20051;-68
2022/01/11 06:40:02;;;;;;;126.90;36.78;;;-2.10;99.90;;;;;;4883479;29;20039;-69
2022/01/11 06:42:30;;;;;;;129.95;37.03;;;-2.00;99.90;;;;;;4889125;29;20036;-68
2022/01/11 06:44:56;;;;;;;139.45;38.35;;;-2.10;99.90;;;;;;4899950;29;20119;-68
2022/01/11 06:47:22;;;;;;;132.25;37.15;;;-2.00;99.90;;;;;;4885376;29;20130;-69
2022/01/11 06:49:48;;;;;;;121.18;34.85;;;-2.00;99.90;;;;;;4874381;29;20035;-68
2022/01/11 06:52:13;;;;;;;137.15;38.20;;;-2.00;99.90;;;;;;4886168;29;20028;-68
2022/01/11 06:54:45;;;;;;;133.85;36.40;;;-2.00;99.90;;;;;;4881818;29;20028;-69
2022/01/11 06:57:11;;;;;;;134.23;35.47;;;-2.00;99.90;;;;;;4882050;29;20084;-69
2022/01/11 06:59:37;;;;;;;131.18;35.40;;;-2.00;99.90;;;;;;4885171;29;20468;-69
2022/01/11 07:02:04;;;;;;;134.40;38.95;;;-2.10;99.90;;;;;;4883700;29;20080;-69
2022/01/11 07:04:41;;;;;;;130.27;37.63;;;-2.10;99.90;;;;;;4887809;29;20024;-68
2022/01/11 07:07:08;;;;;;;134.38;35.13;;;-2.10;99.90;;;;;;4888522;29;20800;-69
2022/01/11 07:09:34;;;;;;;138.20;36.60;;;-2.00;99.90;;;;;;4890851;29;20036;-69
2022/01/11 07:11:59;;;;;;;130.05;37.75;;;-2.10;99.90;;;;;;4878764;29;20689;-69
2022/01/11 07:14:25;;;;;;;133.60;35.35;;;-2.00;99.90;;;;;;4887548;29;20069;-69
2022/01/11 07:16:51;;;;;;;131.40;37.25;;;-2.00;99.90;;;;;;4888441;29;20032;-69
2022/01/11 07:19:17;;;;;;;124.55;33.60;;;-2.00;99.90;;;;;;4884594;29;20032;-69
2022/01/11 07:21:44;;;;;;;132.82;36.28;;;-2.10;99.90;;;;;;4889124;29;20051;-69
2022/01/11 07:24:10;;;;;;;126.43;35.03;;;-2.10;99.90;;;;;;4888887;29;20036;-69
2022/01/11 07:26:36;;;;;;;125.20;35.50;;;-2.00;99.90;;;;;;4887902;29;20115;-69
2022/01/11 07:29:03;;;;;;;120.13;34.97;;;-2.00;99.90;;;;;;4903368;29;20103;-69
2022/01/11 07:31:29;;;;;;;117.75;34.10;;;-2.00;99.90;;;;;;4889127;29;20052;-70
2022/01/11 07:33:55;;;;;;;117.30;34.20;;;-1.90;99.90;;;;;;4890636;29;20172;-70
2022/01/11 07:36:22;;;;;;;115.50;33.83;;;-1.90;99.90;;;;;;4878618;29;20056;-70
2022/01/11 07:38:52;;;;;;;118.18;33.95;;;-1.80;99.90;;;;;;4885430;29;20179;-73
2022/01/11 07:41:25;;;;;;;113.88;32.13;;;-1.80;99.90;;;;;;4883679;29;20035;-70
2022/01/11 07:44:07;;;;;;;109.53;33.53;;;-1.90;99.90;;;;;;4889634;29;20036;-70
2022/01/11 07:46:35;;;;;;;102.22;33.42;;;-1.90;99.90;;;;;;4870017;29;20127;-68
2022/01/11 07:49:05;;;;;;;99.20;31.33;;;-1.80;99.90;;;;;;4881167;29;20032;-68
2022/01/11 07:51:31;;;;;;;105.80;32.92;;;-1.80;99.90;;;;;;4887103;29;20037;-68
2022/01/11 07:53:59;;;;;;;120.32;40.63;;;-1.70;99.90;;;;;;4885459;29;20737;-67
2022/01/11 07:56:24;;;;;;;104.30;31.33;;;-1.70;99.90;;;;;;4887450;29;20072;-68
2022/01/11 07:58:50;;;;;;;97.32;31.48;;;-1.80;99.90;;;;;;4882744;29;20401;-68
2022/01/11 08:01:18;;;;;;;94.25;31.27;;;-1.80;99.90;;;;;;4890057;29;20519;-68
2022/01/11 08:03:48;;;;;;;97.53;29.27;;;-1.90;99.90;;;;;;4885559;29;20065;-69
2022/01/11 08:06:26;;;;;;;99.80;30.65;;;-1.80;99.90;;;;;;4885630;29;20103;-68
2022/01/11 08:08:59;;;;;;;;;;;-1.80;99.90;;;;;;4884911;29;20143;-68
2022/01/11 08:11:25;;;;;;;91.05;28.58;;;-1.80;99.90;;;;;;4886732;29;19916;-68
2022/01/11 08:13:51;;;;;;;100.85;32.72;;;-1.80;99.90;;;;;;4887091;29;20048;-70
2022/01/11 08:16:16;;;;;;;95.05;30.08;;;-1.80;99.90;;;;;;4882120;29;20062;-68
2022/01/11 08:18:42;;;;;;;91.45;29.50;;;-1.70;99.90;;;;;;4886105;29;20091;-68
2022/01/11 08:21:07;;;;;;;85.18;29.13;;;-1.70;99.90;;;;;;4901469;29;20510;-68
2022/01/11 08:23:33;;;;;;;88.70;29.52;;;-1.70;99.90;;;;;;4884955;29;20067;-68
2022/01/11 08:26:00;;;;;;;86.38;31.15;;;-1.70;99.90;;;;;;4868962;29;20119;-68
2022/01/11 08:28:26;;;;;;;91.15;32.53;;;-1.70;99.90;;;;;;4885146;29;20035;-68
2022/01/11 08:30:57;;;;;;;95.55;32.85;;;-1.60;99.90;;;;;;4871595;29;20860;-68
2022/01/11 08:33:25;;;;;;;85.03;29.10;;;-1.50;99.90;;;;;;4869271;29;20099;-68
2022/01/11 08:35:50;;;;;;;85.68;28.83;;;-1.50;99.90;;;;;;4883139;29;20055;-68
2022/01/11 08:38:17;;;;;;;78.22;26.38;;;-1.50;99.90;;;;;;4883701;29;20043;-68
2022/01/11 08:40:45;;;;;;;78.50;28.58;;;-1.50;99.90;;;;;;4882438;29;20590;-68
2022/01/11 08:43:13;;;;;;;77.97;26.05;;;-1.40;99.90;;;;;;4884649;29;20087;-69
2022/01/11 08:45:39;;;;;;;72.25;26.10;;;-1.30;99.90;;;;;;4882305;29;20024;-68
2022/01/11 08:48:10;;;;;;;78.18;26.60;;;-1.30;99.90;;;;;;4882666;29;20071;-68
2022/01/11 08:50:42;;;;;;;75.15;26.52;;;-1.30;99.90;;;;;;4882892;29;20025;-68
2022/01/11 08:53:08;;;;;;;80.70;27.15;;;-1.20;99.90;;;;;;4885135;29;20024;-68
2022/01/11 08:55:34;;;;;;;73.10;26.35;;;-1.20;99.90;;;;;;4885636;29;20172;-68
2022/01/11 08:58:00;;;;;;;73.80;27.48;;;-1.20;99.90;;;;;;4883704;29;20553;-68
2022/01/11 09:00:26;;;;;;;67.65;23.80;;;-1.20;99.90;;;;;;4881587;29;20040;-68
2022/01/11 09:02:58;;;;;;;66.70;24.80;;;-1.30;99.90;;;;;;4885547;29;20123;-69
2022/01/11 09:05:26;;;;;;;72.53;26.23;;;-1.30;99.90;;;;;;4871061;29;20043;-69
2022/01/11 09:07:58;;;;;;;61.85;23.40;;;-1.40;99.90;;;;;;4883271;29;20028;-68
2022/01/11 09:10:24;;;;;;;72.57;24.75;;;-1.40;99.90;;;;;;4883089;29;20032;-68
2022/01/11 09:12:50;;;;;;;66.38;25.67;;;-1.40;99.90;;;;;;4868447;29;20788;-68
2022/01/11 09:15:16;;;;;;;66.55;23.38;;;-1.30;99.90;;;;;;4884082;29;20493;-68
2022/01/11 09:17:42;;;;;;;60.83;21.60;;;-2.00;99.90;;;;;;4868875;29;20039;-68
2022/01/11 09:20:08;;;;;;;62.95;22.20;;;-1.50;99.90;;;;;;4885815;29;20034;-68
2022/01/11 09:22:33;;;;;;;55.17;20.58;;;-1.20;99.90;;;;;;4886296;29;20615;-68
2022/01/11 09:25:01;;;;;;;51.13;19.40;;;-1.10;99.90;;;;;;4885462;29;20037;-68
2022/01/11 09:27:32;;;;;;;52.03;19.90;;;-1.20;99.90;;;;;;4880682;29;20132;-68
2022/01/11 09:29:58;;;;;;;60.17;21.38;;;-1.10;99.90;;;;;;4887680;29;20103;-68
2022/01/11 09:32:26;;;;;;;63.22;23.92;;;-1.00;99.90;;;;;;4885429;29;20062;-68
2022/01/11 09:34:54;;;;;;;70.90;26.10;;;-1.00;99.90;;;;;;4885793;29;20031;-68
2022/01/11 09:37:24;;;;;;;70.03;25.60;;;-1.00;99.90;;;;;;4880944;29;20417;-68
2022/01/11 09:39:51;;;;;;;71.43;26.90;;;-1.00;99.90;;;;;;4883057;29;20626;-68
2022/01/11 09:42:20;;;;;;;66.25;25.25;;;-1.00;99.90;;;;;;4882934;29;20511;-68
2022/01/11 09:44:47;;;;;;;73.70;26.90;;;-0.90;99.90;;;;;;4889021;29;20538;-68
2022/01/11 09:47:13;;;;;;;77.00;26.33;;;-0.90;99.90;;;;;;4879515;29;20524;-68
2022/01/11 09:49:42;;;;;;;72.35;24.90;;;-1.00;99.90;;;;;;4875001;29;20834;-69
2022/01/11 09:52:08;;;;;;;68.53;24.67;;;-1.10;99.90;;;;;;4884169;29;20043;-68
2022/01/11 09:54:35;;;;;;;74.05;24.88;;;-1.00;99.90;;;;;;4887248;29;20043;-68
2022/01/11 09:57:01;;;;;;;73.53;24.98;;;-1.00;99.90;;;;;;4883209;29;20036;-68
2022/01/11 09:59:27;;;;;;;66.55;25.60;;;-1.00;99.90;;;;;;4882611;29;20063;-68
2022/01/11 10:02:11;;;;;;;64.45;24.92;;;-1.00;99.90;;;;;;4882637;29;20094;-68
2022/01/11 10:05:01;;;;;;;70.15;25.35;;;-0.90;99.90;;;;;;4899241;29;20096;-68
2022/01/11 10:07:29;;;;;;;62.28;25.23;;;-1.00;99.90;;;;;;4903249;29;20527;-68
2022/01/11 10:09:55;;;;;;;70.10;25.10;;;-1.00;99.90;;;;;;4886627;29;20499;-68
2022/01/11 10:12:22;;;;;;;61.60;24.40;;;-1.00;99.90;;;;;;4883565;29;20584;-68
2022/01/11 10:14:48;;;;;;;64.35;23.30;;;-1.10;99.90;;;;;;4897902;29;20024;-68
2022/01/11 10:17:15;;;;;;;56.92;22.02;;;-1.10;99.90;;;;;;4878434;29;20040;-68
2022/01/11 10:19:42;;;;;;;64.03;24.40;;;-1.10;99.90;;;;;;4869681;29;20028;-68
2022/01/11 10:22:08;;;;;;;75.43;26.05;;;-1.10;99.90;;;;;;4894173;29;20044;-68
2022/01/11 10:24:35;;;;;;;60.22;22.20;;;-1.10;99.90;;;;;;4883757;29;20059;-68
2022/01/11 10:27:10;;;;;;;63.55;23.48;;;-1.10;99.90;;;;;;4885240;29;20036;-68
2022/01/11 10:29:37;;;;;;;64.40;23.95;;;-1.10;99.90;;;;;;4889014;29;20115;-68
2022/01/11 10:32:05;;;;;;;66.90;24.52;;;-1.10;99.90;;;;;;4866587;29;20059;-66
2022/01/11 10:34:31;;;;;;;66.60;23.85;;;-1.00;99.90;;;;;;4898873;29;20127;-66
2022/01/11 10:36:57;;;;;;;66.50;25.08;;;-1.00;99.90;;;;;;4883976;29;20736;-66
2022/01/11 10:39:23;;;;;;;64.07;23.65;;;-1.00;99.90;;;;;;4884146;29;20042;-66
2022/01/11 10:41:48;;;;;;;68.10;25.92;;;-1.00;99.90;;;;;;4898934;29;20032;-66
2022/01/11 10:44:27;;;;;;;62.97;24.42;;;-1.00;99.90;;;;;;4887454;29;20734;-66
2022/01/11 10:46:52;;;;;;;69.45;27.33;;;-1.00;99.90;;;;;;4886864;29;20140;-66
2022/01/11 10:49:20;;;;;;;70.43;26.27;;;-1.10;99.90;;;;;;4885863;29;20050;-69
2022/01/11 10:51:46;;;;;;;68.85;25.27;;;-1.00;99.90;;;;;;4868531;29;20032;-69
2022/01/11 10:54:11;;;;;;;70.30;25.83;;;-0.90;99.90;;;;;;4887511;29;20032;-69
2022/01/11 10:56:37;;;;;;;72.07;26.77;;;-0.90;99.90;;;;;;4904782;29;20028;-69
2022/01/11 10:59:02;;;;;;;70.57;27.20;;;-0.90;99.90;;;;;;4888450;29;20036;-69
2022/01/11 11:01:28;;;;;;;72.80;26.25;;;-0.90;99.90;;;;;;4900034;29;20929;-69
2022/01/11 11:03:53;;;;;;;68.93;26.98;;;-0.90;99.90;;;;;;4869928;29;20038;-69
2022/01/11 11:06:19;;;;;;;68.00;26.23;;;-0.80;99.90;;;;;;4882846;29;20028;-69
2022/01/11 11:08:49;;;;;;;73.45;27.75;;;-0.90;99.90;;;;;;4871509;29;20042;-69
2022/01/11 11:11:23;;;;;;;73.93;28.27;;;-0.90;99.90;;;;;;4886766;29;20039;-69
2022/01/11 11:14:12;;;;;;;70.72;27.00;;;-0.80;99.90;;;;;;4890934;29;20129;-69
2022/01/11 11:16:44;;;;;;;71.18;27.08;;;-0.80;99.90;;;;;;4885636;29;20099;-69
2022/01/11 11:19:11;;;;;;;73.93;27.15;;;-0.80;99.90;;;;;;4879098;29;20032;-68
2022/01/11 11:21:43;;;;;;;71.20;27.90;;;-0.70;99.90;;;;;;4886460;29;20034;-67
2022/01/11 11:24:10;;;;;;;68.82;26.80;;;-0.70;99.90;;;;;;4885926;29;20048;-67
2022/01/11 11:26:38;;;;;;;69.68;27.13;;;-0.80;99.90;;;;;;4903010;29;20040;-66
2022/01/11 11:29:04;;;;;;;79.32;29.30;;;-0.80;99.90;;;;;;4896511;29;20034;-67
2022/01/11 11:31:29;;;;;;;68.40;25.77;;;-0.80;99.90;;;;;;4905076;29;20418;-67
2022/01/11 11:33:55;;;;;;;70.68;26.60;;;-0.90;99.90;;;;;;4903911;29;20036;-67
2022/01/11 11:36:20;;;;;;;75.53;28.38;;;-0.70;99.90;;;;;;4900595;29;20036;-67
2022/01/11 11:38:46;;;;;;;69.40;27.27;;;-0.60;99.90;;;;;;4899300;29;20072;-67
2022/01/11 11:41:12;;;;;;;71.57;27.55;;;-0.50;99.90;;;;;;4883906;29;20372;-67
2022/01/11 11:43:37;;;;;;;72.68;27.20;;;-0.50;99.90;;;;;;4880866;29;20092;-67
2022/01/11 11:46:03;;;;;;;68.45;25.95;;;-0.60;99.90;;;;;;4878785;29;20114;-67
2022/01/11 11:48:28;;;;;;;73.45;25.20;;;-0.50;99.90;;;;;;4900495;29;20039;-67
2022/01/11 11:50:55;;;;;;;72.32;25.80;;;-0.50;99.90;;;;;;4897795;29;20036;-66
2022/01/11 11:53:20;;;;;;;62.97;24.65;;;-0.40;99.90;;;;;;4904645;29;20043;-66
2022/01/11 11:55:46;;;;;;;64.15;23.48;;;-0.40;99.90;;;;;;4901838;29;20469;-66
2022/01/11 11:58:11;;;;;;;68.30;25.67;;;-0.50;99.90;;;;;;4896938;29;20076;-67
2022/01/11 12:00:37;;;;;;;58.53;23.50;;;-0.50;99.90;;;;;;4902269;29;20092;-67
2022/01/11 12:03:04;;;;;;;62.70;22.48;;;-0.50;99.90;;;;;;4879840;29;20039;-69
2022/01/11 12:05:29;;;;;;;62.47;23.30;;;-0.40;99.90;;;;;;4903759;29;20074;-67
2022/01/11 12:07:55;;;;;;;61.08;23.70;;;-0.60;99.90;;;;;;4903201;29;20119;-67
2022/01/11 12:10:26;;;;;;;68.22;23.73;;;-0.60;99.90;;;;;;4903298;29;20123;-67
2022/01/11 12:12:54;;;;;;;57.80;23.05;;;-0.50;99.90;;;;;;4897173;29;20028;-67
2022/01/11 12:15:19;;;;;;;65.78;25.02;;;-0.40;99.90;;;;;;4901110;29;20036;-67
2022/01/11 12:17:45;;;;;;;63.70;24.25;;;-0.40;99.90;;;;;;4898868;29;20032;-66
2022/01/11 12:20:10;;;;;;;61.53;24.92;;;-0.30;99.90;;;;;;4885130;29;20040;-67